createdAt,value
2023-05-19T00:02:44.153Z,100791.19
2023-05-19T00:05:46.746Z,100800.78
2023-05-19T00:08:49.867Z,100811.50
2023-05-19T00:11:52.549Z,100808.19
2023-05-19T00:14:55.273Z,100804.91
2023-05-19T00:17:58.316Z,100816.44
2023-05-19T00:21:01.235Z,100818.97
2023-05-19T00:24:04.011Z,100805.28
2023-05-19T00:27:06.358Z,100803.16
2023-05-19T00:30:09.203Z,100804.56
2023-05-19T00:33:11.607Z,100803.63
2023-05-19T00:36:14.023Z,100796.66
2023-05-19T00:39:16.474Z,100785.59
2023-05-19T00:42:18.823Z,100781.03
2023-05-19T00:45:21.224Z,100784.41
2023-05-19T00:48:25.881Z,100770.63
2023-05-19T00:51:29.742Z,100782.41
2023-05-19T00:54:34.131Z,100772.59
2023-05-19T00:57:37.856Z,100774.81
2023-05-19T01:00:40.693Z,100772.16
2023-05-19T01:03:44.074Z,100782.84
2023-05-19T01:06:56.192Z,100774.69
2023-05-19T01:09:58.678Z,100775.41
2023-05-19T01:13:02.364Z,100772.72
2023-05-19T01:16:09.112Z,100786.72
2023-05-19T01:19:12.429Z,100794.75
2023-05-19T01:22:28.118Z,100785.19
2023-05-19T01:25:58.376Z,100787.41
2023-05-19T01:29:42.139Z,100789.72
2023-05-19T01:32:45.356Z,100783.63
2023-05-19T01:35:48.757Z,100782.13
2023-05-19T01:38:52.936Z,100774.28
2023-05-19T01:41:55.377Z,100774.09
2023-05-19T01:44:58.079Z,100789.91
2023-05-19T01:48:04.199Z,100782.69
2023-05-19T01:51:06.594Z,100776.53
2023-05-19T01:54:08.903Z,100779.78
2023-05-19T01:57:26.340Z,100776.97
2023-05-19T02:00:57.478Z,100776.88
2023-05-19T02:04:15.103Z,100790.47
2023-05-19T02:07:26.057Z,100790.13
2023-05-19T02:10:32.283Z,100786.41
2023-05-19T02:13:37.990Z,100794.66
2023-05-19T02:16:44.679Z,100793.47
2023-05-19T02:19:47.355Z,100785.91
2023-05-19T02:22:50.548Z,100787.53
2023-05-19T02:25:53.337Z,100783.97
2023-05-19T02:28:55.774Z,100784.41
2023-05-19T02:32:01.540Z,100784.34
2023-05-19T02:35:04.213Z,100775.19
2023-05-19T02:38:09.941Z,100776.03
2023-05-19T02:41:12.226Z,100781.06
2023-05-19T02:44:14.769Z,100774.16
2023-05-19T02:47:17.198Z,100773.81
2023-05-19T02:50:20.138Z,100762.28
2023-05-19T02:53:22.458Z,100775.44
2023-05-19T02:56:24.803Z,100761.81
2023-05-19T02:59:27.353Z,100765.84
2023-05-19T03:02:29.802Z,100771.19
2023-05-19T03:05:34.834Z,100776.69
2023-05-19T03:08:37.697Z,100782.94
2023-05-19T03:11:41.084Z,100770.16
2023-05-19T03:14:44.347Z,100779.16
2023-05-19T03:17:46.782Z,100787.03
2023-05-19T03:20:49.146Z,100794.38
2023-05-19T03:23:51.438Z,100788.44
2023-05-19T03:26:54.237Z,100797.19
2023-05-19T03:29:56.645Z,100788.91
2023-05-19T03:33:01.755Z,100793.03
2023-05-19T03:36:04.652Z,100798.59
2023-05-19T03:39:11.283Z,100793.34
2023-05-19T03:42:13.713Z,100796.66
2023-05-19T03:45:16.193Z,100796.47
2023-05-19T03:48:21.596Z,100786.84
2023-05-19T03:51:44.396Z,100781.81
2023-05-19T03:55:07.922Z,100783.09
2023-05-19T03:58:10.845Z,100783.38
2023-05-19T04:01:13.209Z,100784.00
2023-05-19T04:04:16.758Z,100789.22
2023-05-19T04:07:20.809Z,100792.72
2023-05-19T04:10:23.151Z,100797.84
2023-05-19T04:13:25.570Z,100800.41
2023-05-19T04:16:27.905Z,100807.97
2023-05-19T04:19:30.322Z,100806.94
2023-05-19T04:22:32.962Z,100808.41
2023-05-19T04:25:36.344Z,100813.75
2023-05-19T04:28:41.889Z,100804.44
2023-05-19T04:31:52.827Z,100809.09
2023-05-19T04:34:55.350Z,100806.50
2023-05-19T04:38:01.722Z,100809.44
2023-05-19T04:41:10.754Z,100820.97
2023-05-19T04:44:13.684Z,100823.53
2023-05-19T04:47:17.966Z,100822.94
2023-05-19T04:50:20.657Z,100820.50
2023-05-19T04:53:22.908Z,100818.16
2023-05-19T04:56:27.411Z,100824.09
2023-05-19T04:59:30.036Z,100830.50
2023-05-19T05:02:34.055Z,100829.41
2023-05-19T05:05:36.480Z,100826.81
2023-05-19T05:08:40.654Z,100831.56
2023-05-19T05:11:43.642Z,100832.16
2023-05-19T05:14:46.440Z,100832.31
2023-05-19T05:17:49.053Z,100824.31
2023-05-19T05:20:53.062Z,100827.00
2023-05-19T05:23:56.183Z,100832.19
2023-05-19T05:27:01.624Z,100829.50
2023-05-19T05:30:05.921Z,100833.22
2023-05-19T05:33:09.833Z,100844.66
2023-05-19T05:36:14.847Z,100843.34
2023-05-19T05:39:17.387Z,100841.91
2023-05-19T05:42:20.993Z,100841.41
2023-05-19T05:45:25.255Z,100843.28
2023-05-19T05:48:29.161Z,100844.66
2023-05-19T05:51:33.075Z,100843.81
2023-05-19T05:54:36.291Z,100839.19
2023-05-19T05:57:41.922Z,100846.75
2023-05-19T06:00:45.453Z,100837.31
2023-05-19T06:03:47.948Z,100837.13
2023-05-19T06:07:01.385Z,100836.88
2023-05-19T06:10:09.156Z,100839.53
2023-05-19T06:13:11.671Z,100844.34
2023-05-19T06:16:15.917Z,100842.34
2023-05-19T06:19:21.745Z,100855.22
2023-05-19T06:22:24.296Z,100852.09
2023-05-19T06:25:26.775Z,100870.31
2023-05-19T06:28:29.195Z,100870.56
2023-05-19T06:31:33.491Z,100867.59
2023-05-19T06:34:44.229Z,100864.50
2023-05-19T06:37:53.198Z,100870.19
2023-05-19T06:40:56.000Z,100872.47
2023-05-19T06:43:58.456Z,100880.16
2023-05-19T06:47:00.859Z,100888.72
2023-05-19T06:50:03.455Z,100887.53
2023-05-19T06:53:09.463Z,100888.59
2023-05-19T06:56:12.195Z,100882.25
2023-05-19T06:59:16.217Z,100890.59
2023-05-19T07:02:20.081Z,100885.38
2023-05-19T07:05:23.251Z,100886.94
2023-05-19T07:08:30.342Z,100876.59
2023-05-19T07:11:35.966Z,100864.91
2023-05-19T07:14:39.005Z,100870.94
2023-05-19T07:17:42.121Z,100869.66
2023-05-19T07:20:44.439Z,100865.06
2023-05-19T07:23:46.845Z,100860.69
2023-05-19T07:26:49.221Z,100857.56
2023-05-19T07:29:51.473Z,100861.69
2023-05-19T07:32:53.962Z,100845.25
2023-05-19T07:35:56.441Z,100844.53
2023-05-19T07:38:58.775Z,100849.13
2023-05-19T07:42:01.339Z,100854.28
2023-05-19T07:45:03.982Z,100857.78
2023-05-19T07:48:06.418Z,100851.78
2023-05-19T07:51:10.333Z,100851.50
2023-05-19T07:54:12.652Z,100866.94
2023-05-19T07:57:14.961Z,100857.78
2023-05-19T08:00:17.851Z,100858.25
2023-05-19T08:03:21.144Z,100852.81
2023-05-19T08:06:25.303Z,100852.28
2023-05-19T08:09:27.734Z,100840.38
2023-05-19T08:12:30.039Z,100840.16
2023-05-19T08:15:32.823Z,100850.91
2023-05-19T08:18:35.171Z,100839.03
2023-05-19T08:21:37.533Z,100851.28
2023-05-19T08:24:42.518Z,100839.00
2023-05-19T08:27:44.896Z,100838.81
2023-05-19T08:30:47.177Z,100841.28
2023-05-19T08:33:49.438Z,100845.16
2023-05-19T08:36:51.795Z,100841.22
2023-05-19T08:39:54.067Z,100845.88
2023-05-19T08:42:56.348Z,100841.28
2023-05-19T08:45:59.722Z,100836.03
2023-05-19T08:49:07.753Z,100835.78
2023-05-19T08:52:17.437Z,100821.13
2023-05-19T08:55:39.522Z,100828.09
2023-05-19T08:58:44.072Z,100820.47
2023-05-19T09:01:46.964Z,100832.88
2023-05-19T09:04:49.703Z,100831.03
2023-05-19T09:07:52.045Z,100824.63
2023-05-19T09:10:54.396Z,100826.50
2023-05-19T09:13:57.165Z,100827.78
2023-05-19T09:16:59.732Z,100828.81
2023-05-19T09:20:10.984Z,100839.22
2023-05-19T09:41:47.854Z,100827.56
2023-05-19T09:44:51.790Z,100820.84
2023-05-19T09:48:32.300Z,100820.09
2023-05-19T09:51:37.284Z,100812.78
2023-05-19T09:54:40.469Z,100810.75
2023-05-19T09:57:45.421Z,100806.91
2023-05-19T10:00:47.935Z,100807.44
2023-05-19T10:03:50.663Z,100793.38
2023-05-19T10:06:59.795Z,100788.53
2023-05-19T10:10:03.332Z,100792.88
2023-05-19T10:13:06.241Z,100782.31
2023-05-19T10:16:10.035Z,100766.59
2023-05-19T10:19:13.156Z,100775.00
2023-05-19T10:22:15.657Z,100772.97
2023-05-19T10:25:20.109Z,100773.09
2023-05-19T10:28:25.664Z,100764.69
2023-05-19T10:31:28.255Z,100777.72
2023-05-19T10:34:57.325Z,100759.22
2023-05-19T10:38:17.882Z,100768.13
2023-05-19T10:41:29.398Z,100772.94
2023-05-19T10:44:44.248Z,100765.47
2023-05-19T10:47:46.709Z,100757.53
2023-05-19T10:50:49.885Z,100758.47
2023-05-19T10:53:54.170Z,100750.97
2023-05-19T10:56:56.938Z,100756.13
2023-05-19T11:00:00.956Z,100744.22
2023-05-19T11:03:17.804Z,100738.53
2023-05-19T11:06:26.835Z,100737.50
2023-05-19T11:09:39.735Z,100721.88
2023-05-19T11:12:45.157Z,100737.97
2023-05-19T11:15:47.492Z,100731.41
2023-05-19T11:18:50.602Z,100722.47
2023-05-19T11:21:55.275Z,100727.91
2023-05-19T11:24:57.786Z,100727.97
2023-05-19T11:28:00.336Z,100729.16
2023-05-19T11:31:02.808Z,100734.88
2023-05-19T11:34:08.054Z,100736.09
2023-05-19T11:37:11.635Z,100725.31
2023-05-19T11:40:15.809Z,100723.06
2023-05-19T11:43:18.383Z,100714.50
2023-05-19T11:46:21.021Z,100717.63
2023-05-19T11:49:23.490Z,100721.09
2023-05-19T11:52:27.583Z,100719.22
2023-05-19T11:55:30.147Z,100714.06
2023-05-19T11:58:32.453Z,100718.00
2023-05-19T12:01:35.625Z,100716.59
2023-05-19T12:04:38.619Z,100708.44
2023-05-19T12:07:41.115Z,100705.91
2023-05-19T12:10:43.494Z,100712.72
2023-05-19T12:13:46.266Z,100708.25
2023-05-19T12:16:48.700Z,100700.69
2023-05-19T12:19:51.378Z,100691.31
2023-05-19T12:22:56.316Z,100689.44
2023-05-19T12:26:01.857Z,100687.00
2023-05-19T12:29:07.327Z,100678.53
2023-05-19T12:32:10.093Z,100682.38
2023-05-19T12:35:12.537Z,100678.44
2023-05-19T12:38:14.996Z,100678.25
2023-05-19T12:41:17.561Z,100672.50
2023-05-19T12:44:19.917Z,100677.34
2023-05-19T12:47:22.913Z,100663.09
2023-05-19T12:50:31.285Z,100665.41
2023-05-19T12:53:34.776Z,100655.41
2023-05-19T12:56:38.100Z,100667.91
2023-05-19T12:59:42.931Z,100653.56
2023-05-19T13:03:19.128Z,100667.19
2023-05-19T13:06:22.219Z,100655.09
2023-05-19T13:09:24.530Z,100653.28
2023-05-19T13:12:27.242Z,100645.81
2023-05-19T13:15:34.343Z,100643.72
2023-05-19T13:18:37.719Z,100643.00
2023-05-19T13:21:40.232Z,100643.09
2023-05-19T13:24:42.690Z,100637.88
2023-05-19T13:27:46.160Z,100643.94
2023-05-19T13:30:49.642Z,100632.75
2023-05-19T13:33:52.067Z,100619.34
2023-05-19T13:36:54.610Z,100624.34
2023-05-19T13:39:59.858Z,100607.25
2023-05-19T13:43:03.324Z,100621.19
2023-05-19T13:46:06.060Z,100611.78
2023-05-19T13:49:08.412Z,100615.63
2023-05-19T13:52:11.643Z,100607.75
2023-05-19T13:55:14.045Z,100611.66
2023-05-19T13:58:18.093Z,100617.84
2023-05-19T14:01:21.236Z,100601.38
2023-05-19T14:04:26.470Z,100591.88
2023-05-19T14:07:31.831Z,100604.41
2023-05-19T14:10:34.498Z,100595.38
2023-05-19T14:13:40.965Z,100585.03
2023-05-19T14:16:45.052Z,100601.38
2023-05-19T14:19:47.394Z,100582.44
2023-05-19T14:22:50.001Z,100589.13
2023-05-19T14:25:52.397Z,100579.44
2023-05-19T14:28:56.963Z,100586.72
2023-05-19T14:32:27.321Z,100589.06
2023-05-19T14:35:34.183Z,100594.41
2023-05-19T14:38:36.793Z,100590.38
2023-05-19T14:41:39.157Z,100591.03
2023-05-19T14:44:44.162Z,100587.38
2023-05-19T14:51:22.262Z,100582.75
2023-05-19T14:54:24.791Z,100589.59
2023-05-19T14:57:27.180Z,100595.59
2023-05-19T15:00:29.962Z,100583.63
2023-05-19T15:03:32.365Z,100579.50
2023-05-19T15:06:34.889Z,100581.88
2023-05-19T15:09:37.315Z,100583.34
2023-05-19T15:12:39.741Z,100577.63
2023-05-19T15:15:42.083Z,100573.81
2023-05-19T15:18:44.584Z,100576.88
2023-05-19T15:21:47.023Z,100573.66
2023-05-19T15:24:49.340Z,100577.97
2023-05-19T15:27:52.266Z,100578.78
2023-05-19T15:30:54.789Z,100570.56
2023-05-19T15:33:57.240Z,100578.19
2023-05-19T15:36:59.541Z,100576.38
2023-05-19T15:40:01.809Z,100581.06
2023-05-19T15:43:04.251Z,100571.09
2023-05-19T15:46:06.630Z,100578.13
2023-05-19T15:49:09.258Z,100575.50
2023-05-19T15:52:15.255Z,100576.81
2023-05-19T15:55:17.706Z,100577.63
2023-05-19T15:58:20.112Z,100573.38
2023-05-19T16:01:22.626Z,100578.28
2023-05-19T16:04:25.018Z,100587.81
2023-05-19T16:07:27.418Z,100581.41
2023-05-19T16:10:29.817Z,100582.16
2023-05-19T16:13:33.689Z,100581.84
2023-05-19T16:16:36.173Z,100581.09
2023-05-19T16:19:38.561Z,100592.03
2023-05-19T16:22:41.151Z,100590.41
2023-05-19T16:25:43.415Z,100588.03
2023-05-19T16:28:45.695Z,100595.19
2023-05-19T16:31:48.105Z,100598.03
2023-05-19T16:34:50.674Z,100595.41
2023-05-19T16:37:53.174Z,100598.72
2023-05-19T16:40:55.530Z,100601.47
2023-05-19T16:43:57.940Z,100602.16
2023-05-19T16:47:00.416Z,100592.47
2023-05-19T16:50:03.255Z,100589.88
2023-05-19T16:53:05.831Z,100595.84
2023-05-19T16:56:08.604Z,100585.34
2023-05-19T16:59:11.097Z,100593.81
2023-05-19T17:02:13.570Z,100594.41
2023-05-19T17:05:16.186Z,100586.31
2023-05-19T17:08:18.566Z,100595.81
2023-05-19T17:11:21.880Z,100584.19
2023-05-19T17:14:24.170Z,100589.63
2023-05-19T17:17:26.582Z,100595.34
2023-05-19T17:20:28.962Z,100592.41
2023-05-19T17:23:32.389Z,100594.59
2023-05-19T17:26:34.834Z,100590.88
2023-05-19T17:29:37.276Z,100592.78
2023-05-19T17:32:39.891Z,100593.91
2023-05-19T17:35:42.368Z,100586.38
2023-05-19T17:38:44.749Z,100599.91
2023-05-19T17:41:47.099Z,100604.56
2023-05-19T17:44:49.656Z,100620.78
2023-05-19T17:47:52.091Z,100614.31
2023-05-19T17:50:54.771Z,100611.06
2023-05-19T17:53:57.376Z,100616.19
2023-05-19T17:57:02.232Z,100600.56
2023-05-19T18:00:05.782Z,100603.25
2023-05-19T18:03:08.461Z,100593.00
2023-05-19T18:06:11.862Z,100597.06
2023-05-19T18:09:14.451Z,100605.19
2023-05-19T18:12:17.696Z,100601.13
2023-05-19T18:15:20.107Z,100611.13
2023-05-19T18:18:22.432Z,100605.22
2023-05-19T18:21:25.271Z,100611.69
2023-05-19T18:24:27.631Z,100599.28
2023-05-19T18:27:31.427Z,100616.28
2023-05-19T18:30:33.856Z,100613.03
2023-05-19T18:33:36.645Z,100607.34
2023-05-19T18:36:39.012Z,100604.09
2023-05-19T18:39:41.436Z,100629.44
2023-05-19T18:42:44.187Z,100614.06
2023-05-19T18:45:49.632Z,100624.31
2023-05-19T18:48:52.011Z,100627.25
2023-05-19T18:51:54.295Z,100618.34
2023-05-19T18:54:56.851Z,100616.16
2023-05-19T18:57:59.209Z,100620.72
2023-05-19T19:01:01.839Z,100622.59
2023-05-19T19:04:04.452Z,100622.31
2023-05-19T19:07:07.118Z,100623.13
2023-05-19T19:10:11.551Z,100631.22
2023-05-19T19:13:13.872Z,100629.63
2023-05-19T19:16:16.320Z,100627.97
2023-05-19T19:19:18.744Z,100634.66
2023-05-19T19:22:21.233Z,100634.38
2023-05-19T19:25:23.847Z,100644.88
2023-05-19T19:28:26.611Z,100646.97
2023-05-19T19:31:28.996Z,100658.59
2023-05-19T19:34:31.493Z,100650.72
2023-05-19T19:37:34.062Z,100654.56
2023-05-19T19:40:36.602Z,100651.59
2023-05-19T19:43:39.050Z,100653.66
2023-05-19T19:46:44.149Z,100653.94
2023-05-19T19:49:46.523Z,100653.38
2023-05-19T19:52:48.947Z,100654.75
2023-05-19T19:56:01.430Z,100658.53
2023-05-19T19:59:03.862Z,100670.97
2023-05-19T20:02:06.193Z,100670.44
2023-05-19T20:05:08.969Z,100672.31
2023-05-19T20:08:12.214Z,100665.88
2023-05-19T20:11:15.509Z,100672.13
2023-05-19T20:14:20.655Z,100667.53
2023-05-19T20:17:23.008Z,100669.19
2023-05-19T20:20:25.688Z,100666.44
2023-05-19T20:23:28.144Z,100661.34
2023-05-19T20:26:30.419Z,100663.81
2023-05-19T20:29:32.848Z,100662.22
2023-05-19T20:32:35.981Z,100652.78
2023-05-19T20:35:38.420Z,100663.28
2023-05-19T20:38:40.924Z,100669.19
2023-05-19T20:41:43.177Z,100660.53
2023-05-19T20:44:45.574Z,100662.16
2023-05-19T20:47:50.716Z,100657.81
2023-05-19T20:50:54.110Z,100664.56
2023-05-19T20:53:56.452Z,100659.13
2023-05-19T20:56:58.737Z,100658.81
2023-05-19T21:00:01.088Z,100657.78
2023-05-19T21:03:04.218Z,100664.72
2023-05-19T21:06:06.720Z,100661.81
2023-05-19T21:09:09.584Z,100659.34
2023-05-19T21:12:12.751Z,100660.41
2023-05-19T21:15:15.111Z,100659.59
2023-05-19T21:18:17.422Z,100662.84
2023-05-19T21:21:19.721Z,100656.34
2023-05-19T21:24:21.961Z,100657.09
2023-05-19T21:27:24.333Z,100656.28
2023-05-19T21:30:26.764Z,100657.28
2023-05-19T21:33:29.025Z,100653.78
2023-05-19T21:36:31.869Z,100659.41
2023-05-19T21:39:34.849Z,100663.75
2023-05-19T21:42:37.187Z,100639.63
2023-05-19T21:45:39.488Z,100650.97
2023-05-19T21:48:41.794Z,100648.25
2023-05-19T21:51:44.055Z,100661.19
2023-05-19T21:54:46.311Z,100653.09
2023-05-19T21:57:48.725Z,100640.16
2023-05-19T22:00:54.490Z,100645.53
2023-05-19T22:03:56.854Z,100646.81
2023-05-19T22:06:59.440Z,100646.50
2023-05-19T22:10:02.000Z,100630.91
2023-05-19T22:13:04.309Z,100625.53
2023-05-19T22:16:07.797Z,100633.13
2023-05-19T22:19:11.550Z,100622.34
2023-05-19T22:22:14.684Z,100632.59
2023-05-19T22:25:17.301Z,100630.97
2023-05-19T22:28:19.667Z,100620.69
2023-05-19T22:31:22.011Z,100613.66
2023-05-19T22:34:24.774Z,100623.41
2023-05-19T22:37:29.030Z,100609.09
2023-05-19T22:40:32.655Z,100617.47
2023-05-19T22:43:35.249Z,100618.28
2023-05-19T22:46:37.689Z,100611.28
2023-05-19T22:49:41.285Z,100622.66
2023-05-19T22:52:43.596Z,100611.28
2023-05-19T22:55:45.941Z,100606.44
2023-05-19T22:58:48.297Z,100588.88
2023-05-19T23:01:50.622Z,100596.66
2023-05-19T23:04:52.904Z,100586.25
2023-05-19T23:07:55.308Z,100599.09
2023-05-19T23:11:00.892Z,100608.59
2023-05-19T23:14:03.151Z,100597.81
2023-05-19T23:17:05.754Z,100596.69
2023-05-19T23:20:08.441Z,100605.31
2023-05-19T23:23:10.754Z,100597.16
2023-05-19T23:26:15.947Z,100594.47
2023-05-19T23:29:18.331Z,100599.84
2023-05-19T23:32:20.660Z,100601.22
2023-05-19T23:35:22.951Z,100591.22
2023-05-19T23:38:25.806Z,100588.06
2023-05-19T23:41:28.100Z,100591.81
2023-05-19T23:44:30.382Z,100600.94
2023-05-19T23:47:32.703Z,100591.00
2023-05-19T23:50:35.138Z,100584.03
2023-05-19T23:53:37.486Z,100555.69
2023-05-19T23:56:39.786Z,100568.72
2023-05-19T23:59:42.274Z,100570.63
